createdAt,value
2023-02-24T00:01:51.693Z,90.33
2023-02-24T00:04:21.636Z,90.80
2023-02-24T00:06:51.259Z,90.20
2023-02-24T00:09:21.789Z,90.27
2023-02-24T00:11:54.298Z,90.07
2023-02-24T00:14:23.148Z,90.40
2023-02-24T00:16:51.416Z,92.20
2023-02-24T00:19:21.155Z,91.83
2023-02-24T00:21:51.454Z,91.90
2023-02-24T00:24:19.929Z,91.90
2023-02-24T00:26:54.343Z,90.83
2023-02-24T00:29:22.957Z,91.23
2023-02-24T00:31:56.793Z,93.20
2023-02-24T00:34:25.092Z,91.50
2023-02-24T00:36:54.785Z,91.97
2023-02-24T00:39:30.092Z,91.17
2023-02-24T00:42:04.626Z,89.50
2023-02-24T00:44:34.798Z,92.60
2023-02-24T00:47:04.906Z,91.90
2023-02-24T00:49:33.959Z,92.40
2023-02-24T00:52:04.897Z,94.20
2023-02-24T00:54:36.321Z,92.40
2023-02-24T00:57:04.566Z,92.80
2023-02-24T00:59:32.655Z,90.77
2023-02-24T01:02:00.935Z,90.77
2023-02-24T01:04:29.385Z,92.37
2023-02-24T01:07:00.225Z,95.57
2023-02-24T01:09:33.401Z,91.93
2023-02-24T01:12:33.736Z,91.83
2023-02-24T01:15:05.040Z,93.47
2023-02-24T01:17:33.079Z,92.77
2023-02-24T01:20:16.070Z,92.80
2023-02-24T01:22:45.632Z,93.63
2023-02-24T01:25:15.146Z,93.80
2023-02-24T01:27:43.269Z,91.67
2023-02-24T01:30:15.913Z,92.17
2023-02-24T01:32:44.989Z,92.50
2023-02-24T01:35:14.277Z,91.93
2023-02-24T01:37:43.171Z,92.30
2023-02-24T01:40:21.607Z,91.60
2023-02-24T01:42:50.647Z,92.07
2023-02-24T01:45:25.073Z,91.47
2023-02-24T01:47:54.427Z,92.17
2023-02-24T01:50:26.130Z,91.67
2023-02-24T01:52:58.807Z,91.00
2023-02-24T01:55:32.033Z,92.40
2023-02-24T01:58:04.961Z,93.83
2023-02-24T02:00:39.433Z,93.23
2023-02-24T02:03:13.170Z,94.17
2023-02-24T02:05:42.286Z,93.63
2023-02-24T02:08:11.349Z,93.77
2023-02-24T02:10:44.168Z,94.57
2023-02-24T02:13:14.256Z,94.57
2023-02-24T02:15:56.245Z,92.97
2023-02-24T02:18:33.272Z,93.00
2023-02-24T02:21:26.813Z,92.00
2023-02-24T02:24:05.333Z,92.47
2023-02-24T02:27:10.890Z,91.63
2023-02-24T02:30:19.766Z,92.90
2023-02-24T02:33:27.401Z,94.40
2023-02-24T02:36:07.089Z,92.60
2023-02-24T02:38:43.150Z,95.87
2023-02-24T02:41:20.751Z,97.60
2023-02-24T02:43:52.562Z,94.87
2023-02-24T02:46:34.921Z,95.70
2023-02-24T02:49:13.667Z,95.10
2023-02-24T02:51:51.697Z,94.53
2023-02-24T02:54:27.153Z,95.57
2023-02-24T02:57:01.528Z,95.17
2023-02-24T02:59:32.179Z,95.70
2023-02-24T03:02:11.662Z,93.33
2023-02-24T03:04:43.310Z,93.63
2023-02-24T03:07:17.161Z,91.90
2023-02-24T03:09:49.576Z,92.17
2023-02-24T03:12:21.800Z,91.67
2023-02-24T03:14:53.412Z,93.30
2023-02-24T03:17:25.879Z,93.40
2023-02-24T03:20:00.976Z,90.77
2023-02-24T03:22:35.474Z,93.67
2023-02-24T03:25:06.105Z,92.83
2023-02-24T03:27:41.633Z,94.33
2023-02-24T03:30:16.968Z,93.07
2023-02-24T03:32:55.869Z,93.20
2023-02-24T03:35:27.323Z,93.70
2023-02-24T03:37:59.494Z,93.23
2023-02-24T03:40:29.873Z,91.70
2023-02-24T03:43:05.162Z,93.17
2023-02-24T03:45:37.973Z,93.97
2023-02-24T03:48:07.856Z,93.53
2023-02-24T03:50:38.065Z,91.70
2023-02-24T03:53:22.473Z,94.13
2023-02-24T03:56:00.551Z,94.17
2023-02-24T03:58:39.817Z,92.80
2023-02-24T04:01:14.779Z,94.17
2023-02-24T04:03:50.340Z,93.50
2023-02-24T04:06:23.459Z,94.97
2023-02-24T04:09:01.259Z,95.17
2023-02-24T04:11:37.483Z,92.87
2023-02-24T04:14:09.566Z,91.93
2023-02-24T04:16:43.142Z,91.57
2023-02-24T04:19:15.241Z,91.27
2023-02-24T04:21:45.304Z,92.17
2023-02-24T04:24:16.073Z,92.00
2023-02-24T04:26:46.534Z,93.43
2023-02-24T04:29:20.860Z,92.47
2023-02-24T04:31:53.626Z,93.30
2023-02-24T04:34:22.823Z,91.17
2023-02-24T04:36:51.190Z,91.73
2023-02-24T04:39:23.371Z,89.87
2023-02-24T04:41:52.032Z,89.70
2023-02-24T04:44:22.049Z,90.40
2023-02-24T04:46:51.290Z,89.80
2023-02-24T04:49:20.689Z,90.43
2023-02-24T04:51:48.746Z,89.63
2023-02-24T04:54:18.345Z,86.97
2023-02-24T04:56:50.729Z,85.40
2023-02-24T04:59:19.853Z,85.50
2023-02-24T05:01:51.585Z,84.67
2023-02-24T05:04:20.140Z,84.07
2023-02-24T05:06:49.305Z,83.67
2023-02-24T05:09:19.036Z,83.00
2023-02-24T05:11:50.337Z,81.77
2023-02-24T05:14:21.249Z,79.87
2023-02-24T05:16:50.231Z,77.77
2023-02-24T05:19:37.613Z,77.93
2023-02-24T05:22:07.080Z,74.53
2023-02-24T05:24:35.441Z,72.60
2023-02-24T05:27:05.046Z,71.87
2023-02-24T05:29:35.698Z,70.73
2023-02-24T05:32:05.745Z,68.30
2023-02-24T05:34:34.825Z,67.10
2023-02-24T05:37:10.386Z,64.97
2023-02-24T05:39:38.550Z,62.67
2023-02-24T05:42:08.260Z,62.20
2023-02-24T05:44:37.646Z,62.10
2023-02-24T05:47:06.070Z,60.93
2023-02-24T05:49:36.037Z,58.50
2023-02-24T05:52:08.932Z,58.03
2023-02-24T05:54:40.214Z,55.37
2023-02-24T05:57:12.925Z,54.53
2023-02-24T05:59:42.051Z,54.30
2023-02-24T06:02:12.504Z,51.20
2023-02-24T06:04:50.809Z,50.13
2023-02-24T06:07:22.747Z,51.20
2023-02-24T06:09:53.868Z,49.70
2023-02-24T06:12:25.378Z,50.70
2023-02-24T06:14:53.768Z,51.87
2023-02-24T06:17:22.921Z,49.67
2023-02-24T06:19:52.725Z,48.13
2023-02-24T06:22:22.794Z,48.10
2023-02-24T06:24:51.768Z,48.17
2023-02-24T06:27:21.789Z,48.87
2023-02-24T06:29:52.624Z,48.20
2023-02-24T06:32:22.097Z,47.47
2023-02-24T06:34:51.676Z,48.97
2023-02-24T06:37:19.884Z,51.07
2023-02-24T06:39:48.097Z,50.80
2023-02-24T06:42:16.541Z,51.93
2023-02-24T06:44:45.337Z,50.87
2023-02-24T06:47:17.810Z,49.20
2023-02-24T06:49:45.870Z,47.90
2023-02-24T06:52:18.616Z,46.63
2023-02-24T06:54:48.889Z,46.93
2023-02-24T06:57:16.997Z,45.20
2023-02-24T06:59:46.112Z,43.40
2023-02-24T07:02:17.606Z,44.87
2023-02-24T07:04:45.857Z,43.27
2023-02-24T07:07:17.304Z,48.53
2023-02-24T07:09:45.776Z,44.17
2023-02-24T07:12:15.581Z,44.37
2023-02-24T07:14:44.062Z,43.00
2023-02-24T07:17:14.762Z,41.40
2023-02-24T07:19:44.300Z,42.87
2023-02-24T07:22:14.703Z,42.77
2023-02-24T07:24:46.358Z,40.97
2023-02-24T07:27:22.365Z,41.07
2023-02-24T07:29:53.376Z,40.80
2023-02-24T07:32:22.641Z,42.23
2023-02-24T07:34:53.268Z,41.73
2023-02-24T07:37:23.599Z,43.23
2023-02-24T07:39:51.787Z,41.80
2023-02-24T07:42:19.876Z,41.23
2023-02-24T07:44:49.211Z,42.17
2023-02-24T07:47:17.640Z,43.87
2023-02-24T07:49:45.907Z,46.47
2023-02-24T07:52:16.121Z,46.30
2023-02-24T07:54:44.364Z,46.50
2023-02-24T07:57:13.907Z,43.90
2023-02-24T07:59:47.182Z,44.50
2023-02-24T08:02:16.420Z,45.80
2023-02-24T08:04:50.084Z,43.50
2023-02-24T08:07:24.792Z,43.67
2023-02-24T08:10:14.239Z,44.97
2023-02-24T08:12:43.634Z,45.47
2023-02-24T08:15:23.837Z,45.10
2023-02-24T08:17:53.888Z,46.10
2023-02-24T08:20:22.655Z,45.90
2023-02-24T08:22:53.454Z,49.00
2023-02-24T08:25:35.299Z,49.60
2023-02-24T08:28:08.331Z,49.07
2023-02-24T08:30:45.395Z,49.50
2023-02-24T08:33:18.827Z,48.43
2023-02-24T08:35:46.912Z,47.50
2023-02-24T08:38:20.364Z,48.57
2023-02-24T08:40:55.769Z,48.87
2023-02-24T08:43:32.914Z,47.33
2023-02-24T08:46:04.654Z,48.40
2023-02-24T08:48:38.050Z,45.90
2023-02-24T08:51:10.407Z,47.10
2023-02-24T08:53:41.377Z,46.47
2023-02-24T08:56:12.539Z,45.30
2023-02-24T08:58:47.315Z,43.43
2023-02-24T09:01:24.471Z,41.23
2023-02-24T09:03:55.609Z,40.23
2023-02-24T09:06:27.572Z,39.20
2023-02-24T09:09:11.944Z,39.10
2023-02-24T09:11:44.075Z,38.27
2023-02-24T09:14:25.999Z,37.67
2023-02-24T09:17:03.816Z,38.67
2023-02-24T09:20:02.527Z,35.47
2023-02-24T09:22:33.023Z,36.10
2023-02-24T09:25:24.360Z,38.63
2023-02-24T09:27:56.073Z,35.67
2023-02-24T09:30:37.262Z,34.50
2023-02-24T09:33:21.652Z,32.90
2023-02-24T09:36:03.285Z,33.60
2023-02-24T09:39:08.397Z,33.70
2023-02-24T09:41:54.672Z,33.17
2023-02-24T09:44:29.788Z,33.20
2023-02-24T09:47:09.267Z,32.47
2023-02-24T09:49:56.696Z,32.20
2023-02-24T09:52:39.883Z,34.90
2023-02-24T09:55:26.220Z,30.87
2023-02-24T09:58:27.048Z,31.20
2023-02-24T10:01:21.233Z,29.30
2023-02-24T10:04:15.023Z,29.27
2023-02-24T10:06:50.709Z,27.77
2023-02-24T10:09:27.162Z,28.80
2023-02-24T10:12:04.636Z,28.87
2023-02-24T10:14:43.704Z,29.43
2023-02-24T10:17:30.730Z,29.27
2023-02-24T10:20:13.994Z,30.33
2023-02-24T10:22:52.612Z,31.57
2023-02-24T10:25:36.079Z,32.17
2023-02-24T10:28:16.267Z,32.50
2023-02-24T10:31:04.231Z,32.50
2023-02-24T10:33:39.093Z,32.00
2023-02-24T10:36:12.645Z,33.53
2023-02-24T10:38:45.558Z,34.30
2023-02-24T10:41:15.406Z,34.57
2023-02-24T10:43:56.099Z,35.10
2023-02-24T10:46:41.157Z,36.27
2023-02-24T10:49:16.935Z,37.83
2023-02-24T10:51:52.542Z,39.23
2023-02-24T10:54:34.639Z,39.47
2023-02-24T10:57:15.942Z,39.90
2023-02-24T11:00:06.775Z,42.73
2023-02-24T11:02:56.791Z,42.63
2023-02-24T11:05:38.683Z,42.17
2023-02-24T11:08:26.242Z,42.30
2023-02-24T11:10:58.800Z,43.90
2023-02-24T11:13:45.576Z,46.03
2023-02-24T11:16:31.331Z,46.57
2023-02-24T11:19:00.716Z,49.83
2023-02-24T11:21:29.371Z,48.70
2023-02-24T11:24:02.910Z,47.00
2023-02-24T11:26:36.796Z,54.40
2023-02-24T11:29:24.273Z,54.17
2023-02-24T11:32:11.626Z,56.97
2023-02-24T11:34:49.695Z,55.97
2023-02-24T11:37:34.466Z,55.30
2023-02-24T11:40:07.494Z,57.10
2023-02-24T11:42:42.015Z,59.67
2023-02-24T11:45:22.703Z,57.47
2023-02-24T11:47:55.478Z,58.80
2023-02-24T11:53:29.719Z,56.63
2023-02-24T11:56:03.400Z,54.73
2023-02-24T11:58:41.407Z,54.50
2023-02-24T12:01:16.078Z,60.20
2023-02-24T12:03:53.739Z,64.03
2023-02-24T12:06:27.544Z,60.27
2023-02-24T12:09:03.960Z,65.60
2023-02-24T12:11:41.675Z,66.23
2023-02-24T12:14:23.403Z,73.07
2023-02-24T12:16:59.908Z,74.57
2023-02-24T12:19:34.472Z,77.87
2023-02-24T12:22:07.676Z,79.60
2023-02-24T12:24:38.115Z,80.00
2023-02-24T12:27:18.398Z,75.30
2023-02-24T12:30:06.440Z,78.43
2023-02-24T12:32:48.486Z,79.37
2023-02-24T12:35:21.670Z,74.20
2023-02-24T12:38:05.754Z,76.83
2023-02-24T12:40:48.262Z,74.60
2023-02-24T12:43:28.593Z,81.10
2023-02-24T12:46:05.529Z,75.97
2023-02-24T12:48:54.819Z,81.87
2023-02-24T12:51:29.666Z,81.67
2023-02-24T12:54:04.439Z,82.57
2023-02-24T12:56:42.137Z,81.60
2023-02-24T12:59:15.816Z,77.53
2023-02-24T13:01:52.664Z,70.43
2023-02-24T13:04:38.128Z,70.60
2023-02-24T13:07:20.503Z,64.90
2023-02-24T13:09:56.006Z,60.80
2023-02-24T13:12:34.983Z,57.07
2023-02-24T13:15:05.588Z,58.47
2023-02-24T13:17:33.864Z,53.23
2023-02-24T13:20:12.334Z,49.90
2023-02-24T13:22:43.653Z,50.17
2023-02-24T13:25:31.869Z,49.90
2023-02-24T13:28:03.829Z,45.23
2023-02-24T13:30:42.181Z,46.07
2023-02-24T13:33:29.522Z,43.67
2023-02-24T13:36:13.587Z,46.37
2023-02-24T13:38:43.923Z,44.00
2023-02-24T13:41:38.325Z,44.97
2023-02-24T13:47:37.101Z,39.07
2023-02-24T13:50:20.970Z,39.13
2023-02-24T13:53:04.057Z,39.37
2023-02-24T13:55:48.070Z,36.23
2023-02-24T13:58:42.346Z,31.27
2023-02-24T14:01:12.726Z,27.50
2023-02-24T14:03:45.184Z,25.83
2023-02-24T14:06:21.861Z,24.50
2023-02-24T14:08:54.433Z,22.60
2023-02-24T14:11:28.436Z,23.67
2023-02-24T14:13:58.866Z,24.80
2023-02-24T14:16:31.596Z,25.30
2023-02-24T14:19:03.076Z,26.97
2023-02-24T14:21:34.608Z,23.00
2023-02-24T14:24:06.336Z,24.27
2023-02-24T14:26:46.753Z,23.00
2023-02-24T14:29:18.783Z,26.23
2023-02-24T14:31:53.430Z,29.50
2023-02-24T14:34:25.507Z,33.47
2023-02-24T14:36:56.804Z,34.37
2023-02-24T14:39:27.077Z,35.77
2023-02-24T14:42:11.876Z,37.70
2023-02-24T14:44:43.662Z,39.33
2023-02-24T14:47:15.446Z,41.23
2023-02-24T14:49:54.375Z,38.60
2023-02-24T14:52:34.347Z,37.93
2023-02-24T14:55:07.350Z,36.70
2023-02-24T14:57:40.545Z,37.40
2023-02-24T15:00:17.636Z,35.80
2023-02-24T15:02:52.945Z,37.77
2023-02-24T15:05:22.966Z,34.17
2023-02-24T15:07:52.042Z,31.37
2023-02-24T15:10:24.353Z,33.43
2023-02-24T15:12:59.707Z,32.40
2023-02-24T15:15:34.285Z,32.33
2023-02-24T15:18:11.197Z,30.67
2023-02-24T15:20:42.290Z,31.00
2023-02-24T15:23:27.563Z,30.67
2023-02-24T15:25:56.069Z,30.43
2023-02-24T15:28:26.892Z,29.60
2023-02-24T15:31:03.288Z,29.77
2023-02-24T15:33:37.397Z,27.37
2023-02-24T15:36:12.390Z,29.77
2023-02-24T15:38:43.383Z,30.60
2023-02-24T15:41:13.964Z,30.57
2023-02-24T15:43:50.295Z,31.00
2023-02-24T15:46:26.173Z,31.37
2023-02-24T15:48:57.634Z,27.37
2023-02-24T15:51:35.537Z,29.43
2023-02-24T15:54:06.037Z,27.40
2023-02-24T15:56:37.081Z,27.67
2023-02-24T15:59:06.163Z,26.50
2023-02-24T16:01:35.256Z,24.00
2023-02-24T16:04:04.901Z,23.67
2023-02-24T16:06:36.131Z,24.07
2023-02-24T16:09:05.410Z,23.87
2023-02-24T16:11:39.727Z,23.80
2023-02-24T16:14:14.169Z,23.43
2023-02-24T16:16:44.204Z,23.13
2023-02-24T16:19:14.809Z,23.17
2023-02-24T16:21:45.339Z,23.93
2023-02-24T16:24:14.036Z,22.97
2023-02-24T16:26:42.297Z,24.83
2023-02-24T16:29:15.201Z,26.10
2023-02-24T16:31:43.832Z,26.53
2023-02-24T16:34:15.818Z,26.13
2023-02-24T16:36:45.315Z,27.77
2023-02-24T16:39:14.784Z,28.20
2023-02-24T16:41:42.814Z,27.47
2023-02-24T16:44:11.438Z,28.47
2023-02-24T16:46:41.399Z,28.80
2023-02-24T16:49:14.584Z,30.97
2023-02-24T16:51:42.665Z,28.53
2023-02-24T16:54:12.098Z,28.60
2023-02-24T16:56:40.134Z,29.37
2023-02-24T16:59:08.256Z,30.20
2023-02-24T17:01:36.473Z,29.87
2023-02-24T17:04:09.659Z,29.43
2023-02-24T17:06:37.796Z,29.60
2023-02-24T17:09:05.904Z,29.33
2023-02-24T17:11:35.372Z,30.43
2023-02-24T17:14:03.433Z,30.50
2023-02-24T17:16:31.585Z,30.47
2023-02-24T17:18:59.679Z,30.80
2023-02-24T17:21:27.787Z,32.53
2023-02-24T17:23:55.848Z,30.93
2023-02-24T17:26:24.070Z,31.37
2023-02-24T17:28:53.597Z,32.40
2023-02-24T17:31:22.894Z,32.47
2023-02-24T17:33:51.134Z,33.70
2023-02-24T17:36:19.603Z,35.90
2023-02-24T17:38:47.802Z,36.20
2023-02-24T17:41:15.950Z,35.57
2023-02-24T17:43:43.986Z,34.90
2023-02-24T17:46:13.450Z,34.87
2023-02-24T17:48:41.565Z,36.43
2023-02-24T17:51:14.132Z,37.00
2023-02-24T17:53:42.183Z,37.70
2023-02-24T17:56:11.024Z,39.57
2023-02-24T17:58:39.921Z,40.73
2023-02-24T18:01:08.144Z,43.63
2023-02-24T18:03:37.810Z,43.40
2023-02-24T18:06:08.423Z,43.30
2023-02-24T18:08:37.304Z,42.90
2023-02-24T18:11:06.907Z,39.87
2023-02-24T18:13:35.362Z,39.70
2023-02-24T18:16:08.483Z,40.00
2023-02-24T18:18:38.042Z,39.83
2023-02-24T18:21:08.485Z,40.00
2023-02-24T18:23:38.215Z,38.73
2023-02-24T18:26:08.465Z,38.43
2023-02-24T18:28:37.169Z,38.50
2023-02-24T18:31:12.561Z,39.73
2023-02-24T18:33:42.266Z,39.13
2023-02-24T18:36:11.481Z,39.60
2023-02-24T18:38:39.860Z,41.07
2023-02-24T18:41:09.510Z,42.60
2023-02-24T18:43:38.202Z,41.13
2023-02-24T18:46:08.451Z,40.83
2023-02-24T18:48:36.567Z,40.00
2023-02-24T18:51:06.265Z,39.97
2023-02-24T18:53:36.824Z,39.87
2023-02-24T18:56:06.722Z,37.10
2023-02-24T18:58:37.023Z,38.33
2023-02-24T19:01:12.284Z,37.07
2023-02-24T19:03:40.349Z,35.20
2023-02-24T19:06:10.448Z,37.50
2023-02-24T19:08:39.787Z,35.97
2023-02-24T19:11:10.064Z,35.30
2023-02-24T19:13:38.239Z,35.87
2023-02-24T19:16:07.653Z,35.47
2023-02-24T19:18:36.201Z,37.23
2023-02-24T19:21:06.763Z,38.10
2023-02-24T19:23:36.984Z,37.13
2023-02-24T19:26:05.211Z,37.00
2023-02-24T19:28:33.341Z,36.53
2023-02-24T19:31:01.707Z,38.17
2023-02-24T19:33:29.782Z,38.17
2023-02-24T19:35:59.527Z,40.30
2023-02-24T19:38:28.428Z,41.67
2023-02-24T19:41:00.298Z,44.00
2023-02-24T19:43:28.681Z,44.57
2023-02-24T19:45:56.790Z,44.90
2023-02-24T19:48:24.952Z,46.40
2023-02-24T19:50:53.062Z,46.50
2023-02-24T19:53:21.111Z,47.47
2023-02-24T19:55:50.277Z,48.40
2023-02-24T19:58:19.749Z,48.70
2023-02-24T20:00:48.308Z,49.30
2023-02-24T20:03:17.106Z,49.10
2023-02-24T20:05:45.215Z,51.60
2023-02-24T20:08:13.350Z,52.80
2023-02-24T20:10:41.433Z,51.37
2023-02-24T20:13:09.501Z,52.87
2023-02-24T20:15:39.114Z,52.43
2023-02-24T20:18:08.813Z,53.00
2023-02-24T20:20:37.353Z,51.40
2023-02-24T20:23:05.765Z,54.00
2023-02-24T20:25:33.813Z,50.27
2023-02-24T20:28:02.755Z,52.33
2023-02-24T20:30:30.807Z,52.07
2023-02-24T20:33:00.276Z,52.37
2023-02-24T20:35:28.505Z,54.53
2023-02-24T20:37:56.549Z,54.30
2023-02-24T20:40:24.631Z,54.03
2023-02-24T20:42:52.657Z,54.00
2023-02-24T20:45:20.519Z,52.50
2023-02-24T20:47:48.680Z,52.23
2023-02-24T20:50:18.324Z,47.73
2023-02-24T20:52:46.477Z,48.73
2023-02-24T20:55:14.500Z,42.77
2023-02-24T20:57:42.568Z,40.90
2023-02-24T21:00:11.777Z,42.63
2023-02-24T21:02:41.190Z,41.27
2023-02-24T21:05:10.322Z,38.40
2023-02-24T21:07:40.064Z,38.23
2023-02-24T21:10:08.621Z,37.83
2023-02-24T21:12:36.723Z,36.30
2023-02-24T21:15:06.336Z,35.60
2023-02-24T21:17:34.754Z,36.13
2023-02-24T21:20:02.987Z,37.67
2023-02-24T21:22:31.957Z,38.20
2023-02-24T21:25:01.474Z,39.10
2023-02-24T21:27:29.612Z,43.63
2023-02-24T21:29:57.672Z,43.97
2023-02-24T21:32:25.864Z,46.40
2023-02-24T21:34:53.951Z,47.17
2023-02-24T21:37:22.074Z,49.27
2023-02-24T21:39:50.187Z,49.07
2023-02-24T21:42:19.634Z,50.53
2023-02-24T21:44:47.909Z,50.20
2023-02-24T21:47:15.982Z,49.90
2023-02-24T21:49:44.092Z,49.83
2023-02-24T21:52:12.202Z,49.10
2023-02-24T21:54:42.260Z,52.57
2023-02-24T21:57:10.426Z,52.70
2023-02-24T21:59:39.841Z,54.07
2023-02-24T22:02:08.288Z,54.33
2023-02-24T22:04:36.366Z,53.90
2023-02-24T22:07:04.473Z,53.80
2023-02-24T22:09:33.036Z,55.80
2023-02-24T22:12:01.150Z,54.70
2023-02-24T22:14:29.192Z,55.83
2023-02-24T22:16:58.831Z,53.20
2023-02-24T22:19:27.141Z,54.03
2023-02-24T22:21:55.224Z,53.53
2023-02-24T22:24:23.323Z,54.13
2023-02-24T22:26:51.662Z,56.40
2023-02-24T22:29:19.836Z,56.33
2023-02-24T22:31:49.798Z,56.67
2023-02-24T22:34:19.419Z,57.80
2023-02-24T22:36:47.524Z,58.00
2023-02-24T22:39:17.012Z,57.40
2023-02-24T22:41:45.592Z,58.27
2023-02-24T22:44:14.379Z,57.90
2023-02-24T22:46:42.479Z,57.27
2023-02-24T22:49:11.317Z,57.60
2023-02-24T22:51:42.214Z,60.80
2023-02-24T22:54:10.335Z,58.30
2023-02-24T22:56:38.564Z,59.37
2023-02-24T22:59:06.702Z,59.00
2023-02-24T23:01:36.892Z,58.87
2023-02-24T23:04:07.022Z,62.00
2023-02-24T23:06:36.557Z,61.47
2023-02-24T23:09:06.457Z,62.07
2023-02-24T23:11:38.535Z,65.07
2023-02-24T23:14:09.950Z,64.73
2023-02-24T23:16:39.364Z,65.90
2023-02-24T23:19:10.611Z,64.10
2023-02-24T23:21:40.886Z,70.30
2023-02-24T23:24:13.879Z,67.57
2023-02-24T23:26:43.841Z,69.17
2023-02-24T23:29:14.386Z,69.73
2023-02-24T23:31:43.116Z,71.40
2023-02-24T23:34:12.188Z,73.37
2023-02-24T23:36:41.842Z,73.83
2023-02-24T23:39:12.560Z,77.80
2023-02-24T23:41:42.092Z,75.87
2023-02-24T23:44:10.586Z,76.87
2023-02-24T23:46:38.861Z,77.63
2023-02-24T23:49:07.590Z,77.67
2023-02-24T23:51:47.584Z,79.30
2023-02-24T23:54:18.505Z,80.40
2023-02-24T23:56:46.974Z,80.00
2023-02-24T23:59:15.436Z,79.77
